YPDNYBAS

Guest
Details From YPDN - Darwin Intl
To YBAS - Alice Springs
Flight Number -
Tags Generated
Created
Modified
Stats Distance 705 nm / 1,306 km
Max Altitude 0 ft / 0 m
Waypoints 3
Social Downloads 3
Likes 0
Share VATSIM

Download

Looking for another format? Having issues loading an existing format? Contact us
Advertisement - Login to hide

Notes

Generated

Route

YPDN BASWM YBAS

ID Type Via Altitude Latitude Longitude Leg Dist Tot Dist Heading (true) Name
O YPDN APT - 0 ft / 0 m -12.40889˚ 130.87067˚ - 0 nm - -
BASWM FIX - 0 ft / 0 m -23.79645˚ 133.88468˚ 705 nm 705 nm 166° / 165° -
O YBAS APT - 0 ft / 0 m -23.79728˚ 133.88654˚ 0 nm 705 nm 116° / 116° -

Altitude Profile

Advertisement - Login to hide

Weather


0- 5 10 15 20 25 30 35+ Temperature / ° C

Clouds and Precipitation
Forecast for 2018-05-23 18:00 UTC. Updated 4 hours ago

Ground ~20,000 ft ~40,000 ft Winds

YPDN

Details ICAO YPDN (DRW)
Name Darwin Intl
Region Australia
Timezone Australia/Darwin (UTC+9.5)
Stats Elevation 102 ft / 31 m (AMSL)
Location -12.415064° 130.875278°
Runways 2
Magnetic Variation 2.631° E

METAR

YPDN 232100Z 13008KT CAVOK 22/09 Q1012 NOSIG

Decode

TAF

TAF YPDN 231700Z 2318/2424 13006KT CAVOK FM240000 12013KT CAVOK FM240500 03010KT CAVOK FM241400 15005KT CAVOK

Decode

Departure Runways

ID Width Length Bearing (true) Bearing (mag) Surface Threshold Offset Overrun Length
11 197 ft / 60 m 10,997 ft / 3,352 m 109.02° 106.39° Asphalt 0 ft / 0 m 0 ft / 0 m
18 98 ft / 30 m 5,029 ft / 1,533 m 179.85° 177.22° Asphalt 0 ft / 0 m 0 ft / 0 m
29 197 ft / 60 m 10,997 ft / 3,352 m 289.02° 286.39° Asphalt 0 ft / 0 m 0 ft / 0 m
36 98 ft / 30 m 5,029 ft / 1,533 m 359.85° 357.22° Asphalt 0 ft / 0 m 0 ft / 0 m

YBAS

Details ICAO YBAS (ASP)
Name Alice Springs
Region Australia
Timezone Australia/Darwin (UTC+9.5)
Stats Elevation 1,789 ft / 545 m (AMSL)
Location -23.804452° 133.895220°
Runways 2
Magnetic Variation 4.573° E

METAR

YBAS 232100Z AUTO 28005KT 9999 // NCD 02/M01 Q1023

Decode

TAF

TAF YBAS 231700Z 2318/2418 33005KT CAVOK FM240000 13010KT CAVOK FM240800 12004KT CAVOK FM241700 33005KT CAVOK

Decode

Destination Runways

ID Width Length Bearing (true) Bearing (mag) Surface Threshold Offset Overrun Length
12 148 ft / 45 m 7,996 ft / 2,437 m 120.40° 115.83° Asphalt 0 ft / 0 m 0 ft / 0 m
17 59 ft / 18 m 3,729 ft / 1,137 m 178.24° 173.67° Asphalt 0 ft / 0 m 0 ft / 0 m
30 148 ft / 45 m 7,996 ft / 2,437 m 300.40° 295.83° Asphalt 0 ft / 0 m 0 ft / 0 m
35 59 ft / 18 m 3,729 ft / 1,137 m 358.24° 353.67° Asphalt 0 ft / 0 m 0 ft / 0 m

Approach Navaids

Runway Type Ident Frequency Range Bearing (true) Bearing (mag) Slope Elevation
12 Localiser IAS 109.90 MHz 18 nm / 33 km 120.58° 116.01° - 1,789 ft / 545 m (AMSL)
12 Glidescope IAS 109.90 MHz 10 nm / 19 km 120.40° 115.83° 3.00° 1,789 ft / 545 m (AMSL)

Popular Alternatives